EZY25RW LFPG-EGGD
Flight info
| Callsign | EZY25RW |
|---|---|
| Flight time | 0h 58m |
| Altitude | 38000 |
| Route | OPALE DCT KESAX DCT KUNAV T421 ICTAM |
| Aircraft | A319/M-SDE2E3FGIJ1RWXYZ/LB1 |
Departure
| Time | 2026-05-08 13:54 |
|---|---|
| Airport | Charles de Gaulle International Airport (LFPG) |
Arrival
| Time | 2026-05-08 14:53 |
|---|---|
| Airport | Bristol Airport (EGGD) |
| Time | Latitude | Longitude | Altitude | Speed | Heading |
|---|---|---|---|---|---|
| 2026-05-08 13:33 | 49.00506 | 2.56032 | 361 ft | 0 kts | 171° |
| 2026-05-08 13:34 | 49.00504 | 2.56032 | 361 ft | 0 kts | 170° |
| 2026-05-08 13:43 | 49.00510 | 2.56031 | 354 ft | 4 kts | 170° |
| 2026-05-08 13:44 | 49.00537 | 2.56025 | 354 ft | 4 kts | 176° |
| 2026-05-08 13:44 | 49.00563 | 2.56027 | 354 ft | 4 kts | 204° |
| 2026-05-08 13:44 | 49.00576 | 2.56043 | 364 ft | 0 kts | 251° |
| 2026-05-08 13:49 | 49.00574 | 2.56035 | 354 ft | 3 kts | 250° |
| 2026-05-08 13:50 | 49.00564 | 2.55977 | 354 ft | 8 kts | 266° |
| 2026-05-08 13:50 | 49.00568 | 2.55863 | 354 ft | 13 kts | 268° |
| 2026-05-08 13:50 | 49.00559 | 2.55699 | 354 ft | 18 kts | 264° |
| 2026-05-08 13:50 | 49.00548 | 2.55501 | 354 ft | 19 kts | 268° |
| 2026-05-08 13:51 | 49.00481 | 2.55340 | 358 ft | 20 kts | 196° |
| 2026-05-08 13:51 | 49.00350 | 2.55381 | 356 ft | 19 kts | 168° |
| 2026-05-08 13:51 | 49.00217 | 2.55438 | 358 ft | 20 kts | 160° |
| 2026-05-08 13:51 | 49.00076 | 2.55498 | 356 ft | 22 kts | 166° |
| 2026-05-08 13:52 | 48.99946 | 2.55548 | 361 ft | 18 kts | 166° |
| 2026-05-08 13:52 | 48.99853 | 2.55666 | 356 ft | 18 kts | 119° |
| 2026-05-08 13:52 | 48.99824 | 2.55788 | 357 ft | 9 kts | 107° |
| 2026-05-08 13:52 | 48.99767 | 2.55823 | 360 ft | 10 kts | 179° |
| 2026-05-08 13:53 | 48.99706 | 2.55820 | 354 ft | 3 kts | 184° |
| 2026-05-08 13:53 | 48.99678 | 2.55820 | 354 ft | 6 kts | 178° |
| 2026-05-08 13:53 | 48.99630 | 2.55833 | 354 ft | 9 kts | 161° |
| 2026-05-08 13:53 | 48.99606 | 2.55947 | 354 ft | 22 kts | 83° |
| 2026-05-08 13:54 | 48.99644 | 2.56608 | 362 ft | 100 kts | 86° |
| 2026-05-08 13:54 | 48.99717 | 2.57986 | 401 ft | 152 kts | 85° |
| 2026-05-08 13:54 | 48.99794 | 2.59555 | 1087 ft | 146 kts | 85° |
| 2026-05-08 13:54 | 48.99820 | 2.61089 | 1807 ft | 145 kts | 88° |
| 2026-05-08 13:55 | 48.99830 | 2.62626 | 2426 ft | 146 kts | 85° |
| 2026-05-08 13:55 | 48.99921 | 2.64271 | 2833 ft | 167 kts | 84° |
| 2026-05-08 13:55 | 49.00191 | 2.68273 | 3637 ft | 212 kts | 84° |
| 2026-05-08 13:56 | 49.00339 | 2.70612 | 4083 ft | 233 kts | 84° |
| 2026-05-08 13:56 | 49.00485 | 2.73130 | 4823 ft | 242 kts | 85° |
| 2026-05-08 13:56 | 49.00628 | 2.75682 | 5647 ft | 246 kts | 85° |
| 2026-05-08 13:56 | 49.00770 | 2.78302 | 6546 ft | 249 kts | 85° |
| 2026-05-08 13:57 | 49.00909 | 2.80957 | 7369 ft | 253 kts | 86° |
| 2026-05-08 13:57 | 49.01103 | 2.83660 | 8147 ft | 260 kts | 77° |
| 2026-05-08 13:57 | 49.01895 | 2.86155 | 8933 ft | 267 kts | 51° |
| 2026-05-08 13:57 | 49.03317 | 2.87984 | 9749 ft | 272 kts | 27° |
| 2026-05-08 13:58 | 49.05104 | 2.88808 | 10487 ft | 274 kts | 3° |
| 2026-05-08 13:58 | 49.06991 | 2.88459 | 11209 ft | 276 kts | 338° |
| 2026-05-08 13:58 | 49.08675 | 2.87008 | 11724 ft | 288 kts | 321° |
| 2026-05-08 13:58 | 49.10338 | 2.85069 | 12061 ft | 312 kts | 320° |
| 2026-05-08 13:59 | 49.12104 | 2.82955 | 12495 ft | 330 kts | 320° |
| 2026-05-08 13:59 | 49.13929 | 2.80755 | 13249 ft | 337 kts | 320° |
| 2026-05-08 13:59 | 49.15780 | 2.78524 | 14029 ft | 341 kts | 320° |
| 2026-05-08 13:59 | 49.17663 | 2.76265 | 14762 ft | 345 kts | 320° |
| 2026-05-08 14:00 | 49.19569 | 2.73991 | 15506 ft | 349 kts | 320° |
| 2026-05-08 14:00 | 49.21492 | 2.71702 | 16242 ft | 352 kts | 320° |
| 2026-05-08 14:00 | 49.23438 | 2.69385 | 16971 ft | 355 kts | 320° |
| 2026-05-08 14:00 | 49.25399 | 2.67050 | 17704 ft | 359 kts | 320° |
| 2026-05-08 14:01 | 49.27356 | 2.64713 | 18424 ft | 362 kts | 320° |
| 2026-05-08 14:01 | 49.29347 | 2.62326 | 19053 ft | 365 kts | 320° |
| 2026-05-08 14:01 | 49.31360 | 2.59902 | 19690 ft | 368 kts | 320° |
| 2026-05-08 14:01 | 49.33382 | 2.57465 | 20334 ft | 371 kts | 320° |
| 2026-05-08 14:02 | 49.35423 | 2.55012 | 20979 ft | 374 kts | 320° |
| 2026-05-08 14:02 | 49.37485 | 2.52541 | 21622 ft | 377 kts | 320° |
| 2026-05-08 14:02 | 49.39564 | 2.50047 | 22254 ft | 381 kts | 320° |
| 2026-05-08 14:02 | 49.41659 | 2.47530 | 22889 ft | 384 kts | 320° |
| 2026-05-08 14:03 | 49.43775 | 2.44977 | 23529 ft | 387 kts | 320° |
| 2026-05-08 14:03 | 49.45873 | 2.42439 | 24065 ft | 389 kts | 320° |
| 2026-05-08 14:03 | 49.48011 | 2.39855 | 24634 ft | 390 kts | 320° |
| 2026-05-08 14:03 | 49.50144 | 2.37280 | 25240 ft | 390 kts | 320° |
| 2026-05-08 14:04 | 49.52287 | 2.34686 | 25739 ft | 393 kts | 320° |
| 2026-05-08 14:04 | 49.54447 | 2.32066 | 26265 ft | 394 kts | 320° |
| 2026-05-08 14:04 | 49.56574 | 2.29484 | 26793 ft | 395 kts | 320° |
| 2026-05-08 14:04 | 49.58729 | 2.26862 | 27336 ft | 395 kts | 320° |
| 2026-05-08 14:05 | 49.60895 | 2.24222 | 27857 ft | 395 kts | 321° |
| 2026-05-08 14:05 | 49.63037 | 2.21611 | 28572 ft | 390 kts | 321° |
| 2026-05-08 14:05 | 49.65163 | 2.19017 | 29231 ft | 388 kts | 321° |
| 2026-05-08 14:05 | 49.67281 | 2.16432 | 29789 ft | 387 kts | 321° |
| 2026-05-08 14:06 | 49.69396 | 2.13845 | 30276 ft | 388 kts | 321° |
| 2026-05-08 14:06 | 49.71510 | 2.11253 | 30654 ft | 389 kts | 321° |
| 2026-05-08 14:06 | 49.73614 | 2.08672 | 30996 ft | 392 kts | 321° |
| 2026-05-08 14:06 | 49.75767 | 2.06030 | 31279 ft | 396 kts | 321° |
| 2026-05-08 14:07 | 49.77932 | 2.03375 | 31593 ft | 398 kts | 321° |
| 2026-05-08 14:07 | 49.80108 | 2.00705 | 31982 ft | 399 kts | 321° |
| 2026-05-08 14:07 | 49.82280 | 1.98029 | 32449 ft | 398 kts | 321° |
| 2026-05-08 14:07 | 49.84447 | 1.95354 | 32913 ft | 397 kts | 321° |
| 2026-05-08 14:08 | 49.86575 | 1.92721 | 33367 ft | 396 kts | 321° |
| 2026-05-08 14:08 | 49.88736 | 1.90049 | 33831 ft | 395 kts | 321° |
| 2026-05-08 14:08 | 49.90885 | 1.87390 | 34256 ft | 394 kts | 320° |
| 2026-05-08 14:08 | 49.93038 | 1.84734 | 34586 ft | 395 kts | 320° |
| 2026-05-08 14:09 | 49.95195 | 1.82078 | 34890 ft | 396 kts | 320° |
| 2026-05-08 14:09 | 49.97360 | 1.79417 | 35213 ft | 397 kts | 320° |
| 2026-05-08 14:09 | 49.99527 | 1.76755 | 35509 ft | 398 kts | 320° |
| 2026-05-08 14:09 | 50.01705 | 1.74073 | 35774 ft | 399 kts | 320° |
| 2026-05-08 14:10 | 50.03887 | 1.71379 | 36032 ft | 401 kts | 320° |
| 2026-05-08 14:10 | 50.06078 | 1.68670 | 36280 ft | 403 kts | 320° |
| 2026-05-08 14:10 | 50.08239 | 1.65958 | 36521 ft | 404 kts | 319° |
| 2026-05-08 14:10 | 50.10392 | 1.63119 | 36762 ft | 405 kts | 317° |
| 2026-05-08 14:11 | 50.12518 | 1.60217 | 36992 ft | 406 kts | 317° |
| 2026-05-08 14:11 | 50.13925 | 1.58268 | 37152 ft | 407 kts | 316° |
| 2026-05-08 14:11 | 50.16742 | 1.54357 | 37459 ft | 409 kts | 316° |
| 2026-05-08 14:11 | 50.18876 | 1.51410 | 37691 ft | 410 kts | 316° |
| 2026-05-08 14:12 | 50.21028 | 1.48459 | 37889 ft | 412 kts | 317° |
| 2026-05-08 14:12 | 50.22490 | 1.46464 | 38018 ft | 414 kts | 317° |
| 2026-05-08 14:12 | 50.24642 | 1.43535 | 38080 ft | 414 kts | 317° |
| 2026-05-08 14:13 | 50.28984 | 1.37606 | 38072 ft | 413 kts | 317° |
| 2026-05-08 14:13 | 50.33315 | 1.31672 | 38078 ft | 413 kts | 317° |
| 2026-05-08 14:14 | 50.37614 | 1.25766 | 38080 ft | 413 kts | 317° |
| 2026-05-08 14:14 | 50.41938 | 1.19801 | 38099 ft | 413 kts | 317° |
| 2026-05-08 14:15 | 50.46255 | 1.13832 | 38076 ft | 414 kts | 316° |
| 2026-05-08 14:15 | 50.50545 | 1.07875 | 38079 ft | 414 kts | 316° |
| 2026-05-08 14:16 | 50.54962 | 1.02035 | 38090 ft | 415 kts | 320° |
| 2026-05-08 14:16 | 50.59547 | 0.96481 | 38092 ft | 416 kts | 321° |
| 2026-05-08 14:17 | 50.64115 | 0.90954 | 38098 ft | 415 kts | 320° |
| 2026-05-08 14:17 | 50.68665 | 0.85309 | 38108 ft | 415 kts | 320° |
| 2026-05-08 14:18 | 50.73191 | 0.79645 | 38111 ft | 415 kts | 319° |
| 2026-05-08 14:18 | 50.77683 | 0.74008 | 38110 ft | 415 kts | 319° |
| 2026-05-08 14:19 | 50.82197 | 0.68329 | 38106 ft | 415 kts | 319° |
| 2026-05-08 14:19 | 50.86723 | 0.62642 | 38104 ft | 414 kts | 319° |
| 2026-05-08 14:20 | 50.91238 | 0.56968 | 38099 ft | 414 kts | 319° |
| 2026-05-08 14:20 | 50.95751 | 0.51268 | 38081 ft | 414 kts | 319° |
| 2026-05-08 14:21 | 51.00247 | 0.45561 | 38087 ft | 414 kts | 319° |
| 2026-05-08 14:21 | 51.04713 | 0.39885 | 38081 ft | 413 kts | 319° |
| 2026-05-08 14:22 | 51.09203 | 0.34171 | 38077 ft | 412 kts | 319° |
| 2026-05-08 14:22 | 51.13673 | 0.28449 | 38069 ft | 412 kts | 319° |
| 2026-05-08 14:23 | 51.18116 | 0.22746 | 38077 ft | 412 kts | 319° |
| 2026-05-08 14:23 | 51.22579 | 0.17021 | 37521 ft | 416 kts | 319° |
| 2026-05-08 14:23 | 51.24837 | 0.14127 | 37053 ft | 411 kts | 319° |
| 2026-05-08 14:24 | 51.27055 | 0.11284 | 36592 ft | 406 kts | 319° |
| 2026-05-08 14:24 | 51.29246 | 0.08466 | 36133 ft | 401 kts | 318° |
| 2026-05-08 14:24 | 51.31196 | 0.05417 | 35677 ft | 395 kts | 308° |
| 2026-05-08 14:24 | 51.32778 | 0.01861 | 35194 ft | 390 kts | 299° |
| 2026-05-08 14:25 | 51.33940 | -0.02033 | 34721 ft | 386 kts | 290° |
| 2026-05-08 14:25 | 51.34713 | -0.06135 | 34238 ft | 383 kts | 285° |
| 2026-05-08 14:25 | 51.35403 | -0.10243 | 33723 ft | 380 kts | 285° |
| 2026-05-08 14:25 | 51.36084 | -0.14293 | 33263 ft | 375 kts | 285° |
| 2026-05-08 14:26 | 51.36759 | -0.18320 | 32802 ft | 371 kts | 285° |
| 2026-05-08 14:26 | 51.37425 | -0.22294 | 32343 ft | 368 kts | 285° |
| 2026-05-08 14:26 | 51.38075 | -0.26178 | 31910 ft | 364 kts | 285° |
| 2026-05-08 14:26 | 51.38727 | -0.30074 | 31480 ft | 360 kts | 285° |
| 2026-05-08 14:27 | 51.39370 | -0.33945 | 31053 ft | 357 kts | 285° |
| 2026-05-08 14:27 | 51.40005 | -0.37781 | 30640 ft | 355 kts | 285° |
| 2026-05-08 14:27 | 51.40636 | -0.41599 | 30231 ft | 353 kts | 285° |
| 2026-05-08 14:27 | 51.41259 | -0.45386 | 29790 ft | 351 kts | 285° |
| 2026-05-08 14:28 | 51.41878 | -0.49151 | 29400 ft | 347 kts | 285° |
| 2026-05-08 14:28 | 51.42482 | -0.52820 | 29024 ft | 343 kts | 285° |
| 2026-05-08 14:28 | 51.43086 | -0.56498 | 28657 ft | 339 kts | 285° |
| 2026-05-08 14:28 | 51.43680 | -0.60130 | 28294 ft | 334 kts | 285° |
| 2026-05-08 14:29 | 51.44265 | -0.63707 | 27933 ft | 330 kts | 285° |
| 2026-05-08 14:29 | 51.44827 | -0.67159 | 27581 ft | 325 kts | 285° |
| 2026-05-08 14:29 | 51.45397 | -0.70668 | 27221 ft | 324 kts | 285° |
| 2026-05-08 14:29 | 51.45965 | -0.74163 | 26857 ft | 323 kts | 285° |
| 2026-05-08 14:30 | 51.46528 | -0.77637 | 26482 ft | 321 kts | 285° |
| 2026-05-08 14:30 | 51.47087 | -0.81100 | 26118 ft | 320 kts | 285° |
| 2026-05-08 14:30 | 51.47637 | -0.84522 | 25736 ft | 319 kts | 285° |
| 2026-05-08 14:30 | 51.48191 | -0.87963 | 25357 ft | 318 kts | 285° |
| 2026-05-08 14:31 | 51.48722 | -0.91271 | 24985 ft | 317 kts | 285° |
| 2026-05-08 14:31 | 51.49271 | -0.94701 | 24596 ft | 316 kts | 284° |
| 2026-05-08 14:31 | 51.49816 | -0.98118 | 24203 ft | 315 kts | 284° |
| 2026-05-08 14:32 | 51.50901 | -1.04925 | 23374 ft | 314 kts | 284° |
| 2026-05-08 14:32 | 51.51433 | -1.08281 | 22970 ft | 313 kts | 283° |
| 2026-05-08 14:32 | 51.51973 | -1.11702 | 22582 ft | 311 kts | 283° |
| 2026-05-08 14:32 | 51.52497 | -1.15017 | 22209 ft | 310 kts | 283° |
| 2026-05-08 14:33 | 51.53000 | -1.18387 | 21838 ft | 316 kts | 281° |
| 2026-05-08 14:33 | 51.53453 | -1.21942 | 21460 ft | 329 kts | 279° |
| 2026-05-08 14:33 | 51.53875 | -1.25567 | 21070 ft | 331 kts | 279° |
| 2026-05-08 14:33 | 51.54286 | -1.29231 | 20447 ft | 336 kts | 278° |
| 2026-05-08 14:34 | 51.54700 | -1.32926 | 19971 ft | 336 kts | 278° |
| 2026-05-08 14:34 | 51.55120 | -1.36631 | 19506 ft | 336 kts | 278° |
| 2026-05-08 14:34 | 51.55540 | -1.40288 | 19045 ft | 337 kts | 278° |
| 2026-05-08 14:34 | 51.55972 | -1.43996 | 18577 ft | 337 kts | 278° |
| 2026-05-08 14:35 | 51.56403 | -1.47701 | 18077 ft | 338 kts | 278° |
| 2026-05-08 14:35 | 51.56837 | -1.51412 | 17600 ft | 336 kts | 278° |
| 2026-05-08 14:35 | 51.57267 | -1.55103 | 17135 ft | 335 kts | 278° |
| 2026-05-08 14:35 | 51.57692 | -1.58791 | 16670 ft | 334 kts | 278° |
| 2026-05-08 14:36 | 51.58117 | -1.62457 | 16208 ft | 333 kts | 278° |
| 2026-05-08 14:36 | 51.58535 | -1.66121 | 15746 ft | 333 kts | 277° |
| 2026-05-08 14:36 | 51.58872 | -1.69791 | 15285 ft | 332 kts | 275° |
| 2026-05-08 14:36 | 51.59141 | -1.73441 | 14872 ft | 330 kts | 274° |
| 2026-05-08 14:37 | 51.59436 | -1.77047 | 14741 ft | 319 kts | 275° |
| 2026-05-08 14:37 | 51.59751 | -1.80529 | 14611 ft | 310 kts | 276° |
| 2026-05-08 14:37 | 51.60050 | -1.83936 | 14348 ft | 305 kts | 275° |
| 2026-05-08 14:37 | 51.60352 | -1.87307 | 14049 ft | 303 kts | 276° |
| 2026-05-08 14:38 | 51.60648 | -1.90661 | 13691 ft | 301 kts | 276° |
| 2026-05-08 14:38 | 51.60926 | -1.93954 | 13324 ft | 300 kts | 276° |
| 2026-05-08 14:38 | 51.61206 | -1.97290 | 12942 ft | 299 kts | 275° |
| 2026-05-08 14:38 | 51.61492 | -2.00617 | 12580 ft | 298 kts | 276° |
| 2026-05-08 14:39 | 51.61772 | -2.03899 | 12225 ft | 296 kts | 275° |
| 2026-05-08 14:39 | 51.62037 | -2.07167 | 11871 ft | 293 kts | 272° |
| 2026-05-08 14:39 | 51.61940 | -2.10404 | 11526 ft | 288 kts | 261° |
| 2026-05-08 14:39 | 51.61698 | -2.13604 | 11171 ft | 286 kts | 261° |
| 2026-05-08 14:40 | 51.61442 | -2.16779 | 10823 ft | 285 kts | 261° |
| 2026-05-08 14:40 | 51.61189 | -2.19890 | 10477 ft | 283 kts | 261° |
| 2026-05-08 14:40 | 51.60932 | -2.23021 | 10132 ft | 281 kts | 261° |
| 2026-05-08 14:40 | 51.60675 | -2.26141 | 9777 ft | 279 kts | 261° |
| 2026-05-08 14:41 | 51.60421 | -2.29230 | 9387 ft | 277 kts | 260° |
| 2026-05-08 14:41 | 51.60169 | -2.32300 | 9004 ft | 275 kts | 260° |
| 2026-05-08 14:41 | 51.59775 | -2.35287 | 8602 ft | 272 kts | 252° |
| 2026-05-08 14:41 | 51.59216 | -2.38157 | 8205 ft | 271 kts | 250° |
| 2026-05-08 14:42 | 51.58639 | -2.41029 | 8047 ft | 270 kts | 250° |
| 2026-05-08 14:42 | 51.58063 | -2.43901 | 8053 ft | 270 kts | 250° |
| 2026-05-08 14:42 | 51.57488 | -2.46780 | 8055 ft | 270 kts | 250° |
| 2026-05-08 14:42 | 51.56914 | -2.49660 | 8055 ft | 270 kts | 250° |
| 2026-05-08 14:43 | 51.56337 | -2.52546 | 7987 ft | 272 kts | 250° |
| 2026-05-08 14:43 | 51.55761 | -2.55422 | 7465 ft | 274 kts | 250° |
| 2026-05-08 14:43 | 51.55172 | -2.58341 | 6957 ft | 268 kts | 250° |
| 2026-05-08 14:43 | 51.54598 | -2.61172 | 6464 ft | 264 kts | 250° |
| 2026-05-08 14:44 | 51.54041 | -2.63934 | 5952 ft | 262 kts | 250° |
| 2026-05-08 14:44 | 51.53488 | -2.66725 | 5441 ft | 261 kts | 250° |
| 2026-05-08 14:44 | 51.52945 | -2.69512 | 5010 ft | 261 kts | 250° |
| 2026-05-08 14:44 | 51.52405 | -2.72291 | 4627 ft | 261 kts | 251° |
| 2026-05-08 14:45 | 51.51866 | -2.75064 | 4502 ft | 259 kts | 250° |
| 2026-05-08 14:45 | 51.51323 | -2.77841 | 4508 ft | 261 kts | 250° |
| 2026-05-08 14:45 | 51.50775 | -2.80616 | 4506 ft | 260 kts | 250° |
| 2026-05-08 14:45 | 51.50256 | -2.83267 | 4525 ft | 241 kts | 250° |
| 2026-05-08 14:46 | 51.49771 | -2.85769 | 4526 ft | 231 kts | 250° |
| 2026-05-08 14:46 | 51.49299 | -2.88232 | 4526 ft | 229 kts | 250° |
| 2026-05-08 14:46 | 51.48822 | -2.90687 | 4526 ft | 231 kts | 250° |
| 2026-05-08 14:46 | 51.48338 | -2.93150 | 4525 ft | 231 kts | 250° |
| 2026-05-08 14:47 | 51.47860 | -2.95583 | 4504 ft | 231 kts | 250° |
| 2026-05-08 14:47 | 51.47236 | -2.97938 | 4503 ft | 227 kts | 231° |
| 2026-05-08 14:47 | 51.46034 | -2.99386 | 4507 ft | 215 kts | 197° |
| 2026-05-08 14:47 | 51.44545 | -2.99741 | 4185 ft | 220 kts | 182° |
| 2026-05-08 14:48 | 51.43007 | -2.99812 | 3790 ft | 222 kts | 180° |
| 2026-05-08 14:48 | 51.41462 | -2.99844 | 3410 ft | 223 kts | 180° |
| 2026-05-08 14:48 | 51.39911 | -2.99780 | 3022 ft | 224 kts | 169° |
| 2026-05-08 14:48 | 51.38549 | -2.98653 | 2631 ft | 224 kts | 135° |
| 2026-05-08 14:49 | 51.37671 | -2.96637 | 2501 ft | 215 kts | 121° |
| 2026-05-08 14:49 | 51.37006 | -2.94522 | 2490 ft | 210 kts | 107° |
| 2026-05-08 14:49 | 51.37156 | -2.92301 | 2490 ft | 199 kts | 68° |
| 2026-05-08 14:49 | 51.37592 | -2.90263 | 2519 ft | 189 kts | 86° |
| 2026-05-08 14:50 | 51.37638 | -2.88258 | 2424 ft | 173 kts | 89° |
| 2026-05-08 14:50 | 51.37700 | -2.86371 | 2239 ft | 167 kts | 90° |
| 2026-05-08 14:50 | 51.37770 | -2.84531 | 2024 ft | 164 kts | 88° |
| 2026-05-08 14:50 | 51.37840 | -2.82731 | 1810 ft | 158 kts | 89° |
| 2026-05-08 14:51 | 51.37907 | -2.81046 | 1618 ft | 150 kts | 88° |
| 2026-05-08 14:51 | 51.37970 | -2.79469 | 1420 ft | 136 kts | 90° |
| 2026-05-08 14:51 | 51.38028 | -2.77993 | 1230 ft | 131 kts | 87° |
| 2026-05-08 14:51 | 51.38085 | -2.76541 | 1077 ft | 131 kts | 89° |
| 2026-05-08 14:52 | 51.38142 | -2.75100 | 875 ft | 127 kts | 88° |
| 2026-05-08 14:52 | 51.38249 | -2.72309 | 627 ft | 114 kts | 86° |
| 2026-05-08 14:52 | 51.38289 | -2.71430 | 604 ft | 59 kts | 88° |
| 2026-05-08 14:53 | 51.38300 | -2.70901 | 606 ft | 22 kts | 86° |
| 2026-05-08 14:53 | 51.38372 | -2.70754 | 609 ft | 16 kts | 17° |
| 2026-05-08 14:53 | 51.38441 | -2.70721 | 611 ft | 9 kts | 349° |
| 2026-05-08 14:53 | 51.38473 | -2.70792 | 619 ft | 8 kts | 289° |
| 2026-05-08 14:54 | 51.38521 | -2.70842 | 614 ft | 9 kts | 306° |
| 2026-05-08 14:54 | 51.38524 | -2.70905 | 611 ft | 0 kts | 268° |